Aviation Digital Data Service (ADDS)

Output produced by METARs form (2328 UTC 20 January 2019)
found at http://www.aviationweather.gov/metar/data/
 
Forecast for: RCSS (SUNGSHAN/TAIPEI , TW)
Text: TAF RCSS 202300Z 2100/2124 09010KT 8000 FEW012 BKN032 BKN060
Forecast period: 0000 UTC 21 January 2019 to 0000 UTC 22 January 2019
Forecast type: FROM: standard forecast or significant change
Winds: from the E (90 degrees) at 12 MPH (10 knots; 5.1 m/s)
Visibility: 5 miles (8 km)
Ceiling: 3200 feet AGL
Clouds: few clouds at 1200 feet AGL
broken clouds at 3200 feet AGL
broken clouds at 6000 feet AGL
Weather: no significant weather forecast for this period
Text: TEMPO 2108/2114 FEW010 BKN022 BKN050
Forecast period: 0800 to 1400 UTC 21 January 2019
Forecast type: TEMPORARY: The following changes expected for less than half the time period
Visibility: missing
Ceiling: 2200 feet AGL
Clouds: few clouds at 1000 feet AGL
broken clouds at 2200 feet AGL
broken clouds at 5000 feet AGL
Weather: no significant weather forecast for this period
Text: TEMPO 2120/2124 FEW010 BKN022 BKN050
Forecast period: 2000 UTC 21 January 2019 to 0000 UTC 22 January 2019
Forecast type: TEMPORARY: The following changes expected for less than half the time period
Visibility: missing
Ceiling: 2200 feet AGL
Clouds: few clouds at 1000 feet AGL
broken clouds at 2200 feet AGL
broken clouds at 5000 feet AGL
Weather: no significant weather forecast for this period